Time;durP1;ratioP1;P1;durP2;ratioP2;P2;SDS_P1;SDS_P2;PMS_P1;PMS_P2;Temp;Humidity;BMP_temperature;BMP_pressure;BME280_temperature;BME280_humidity;BME280_pressure;Samples;Min_cycle;Max_cycle;Signal;HPM_P1;HPM_P2
2022/11/26 00:02:15;;;;;;;;;;;;;;;;;;6139611;23;20374;-78
2022/11/26 00:04:41;;;;;;;;;;;;;;;;;;6139997;23;19920;-74
2022/11/26 00:07:07;;;;;;;;;;;;;;;;;;6139064;23;19916;-74
2022/11/26 00:09:32;;;;;;;;;;;;;;;;;;6141362;23;20244;-74
2022/11/26 00:11:58;;;;;;;;;;;;;;;;;;6141162;23;19936;-74
2022/11/26 00:14:24;;;;;;;;;;;;;;;;;;6138648;23;19916;-74
2022/11/26 00:16:50;;;;;;;;;;;;;;;;;;6138973;23;20343;-74
2022/11/26 00:19:16;;;;;;;;;;;;;;;;;;6139704;23;19921;-73
2022/11/26 00:21:42;;;;;;;;;;;;;;;;;;6141091;23;19927;-73
2022/11/26 00:24:08;;;;;;;;;;;;;;;;;;6142114;23;20320;-73
2022/11/26 00:26:34;;;;;;;;;;;;;;;;;;6138041;23;20003;-74
2022/11/26 00:29:00;;;;;;;;;;;;;;;;;;6141957;23;19916;-73
2022/11/26 00:31:26;;;;;;;;;;;;;;;;;;6141570;23;20565;-73
2022/11/26 00:33:52;;;;;;;;;;;;;;;;;;6141938;23;19983;-74
2022/11/26 00:36:18;;;;;;;;;;;;;;;;;;6140196;23;19924;-73
2022/11/26 00:38:44;;;;;;;;;;;;;;;;;;6091438;23;19982;-73
2022/11/26 00:41:10;;;;;;;;;;;;;;;;;;6134879;23;20292;-73
2022/11/26 00:43:36;;;;;;;;;;;;;;;;;;6112998;23;20007;-73
2022/11/26 00:46:02;;;;;;;;;;;;;;;;;;6111070;23;19940;-73
2022/11/26 00:48:27;;;;;;;;;;;;;;;;;;6134995;23;19917;-73
2022/11/26 00:50:53;;;;;;;;;;;;;;;;;;6085107;23;20315;-73
2022/11/26 00:53:19;;;;;;;;;;;;;;;;;;6134076;23;20035;-73
2022/11/26 00:55:45;;;;;;;;;;;;;;;;;;6134409;23;19923;-73
2022/11/26 00:58:11;;;;;;;;;;;;;;;;;;6134227;23;20264;-73
2022/11/26 01:00:37;;;;;;;;;;;;;;;;;;6111760;23;19923;-73
2022/11/26 01:03:03;;;;;;;;;;;;;;;;;;6135041;23;19916;-73
2022/11/26 01:05:30;;;;;;;;;;;;;;;;;;6134679;23;19921;-73
2022/11/26 01:07:56;;;;;;;;;;;;;;;;;;6112325;23;19921;-74
2022/11/26 01:10:22;;;;;;;;;;;;;;;;;;6112329;23;20406;-73
2022/11/26 01:12:48;;;;;;;;;;;;;;;;;;6109005;23;19924;-73
2022/11/26 01:15:14;;;;;;;;;;;;;;;;;;6112185;23;20201;-73
2022/11/26 01:17:40;;;;;;;;;;;;;;;;;;6110747;23;20913;-73
2022/11/26 01:20:06;;;;;;;;;;;;;;;;;;6111172;23;20474;-73
2022/11/26 01:22:32;;;;;;;;;;;;;;;;;;6111923;23;19916;-73
2022/11/26 01:24:58;;;;;;;;;;;;;;;;;;6111925;23;19920;-74
2022/11/26 01:27:24;;;;;;;;;;;;;;;;;;6111317;23;19916;-72
2022/11/26 01:29:50;;;;;;;;;;;;;;;;;;6134589;23;19923;-73
2022/11/26 01:32:16;;;;;;;;;;;;;;;;;;6085195;23;19917;-73
2022/11/26 01:34:42;;;;;;;;;;;;;;;;;;6111304;23;19917;-73
2022/11/26 01:37:08;;;;;;;;;;;;;;;;;;6111122;23;19916;-74
2022/11/26 01:39:34;;;;;;;;;;;;;;;;;;6109698;23;20333;-73
2022/11/26 01:42:00;;;;;;;;;;;;;;;;;;6132769;23;20004;-74
2022/11/26 01:44:25;;;;;;;;;;;;;;;;;;6111259;23;19917;-74
2022/11/26 01:46:51;;;;;;;;;;;;;;;;;;6133268;23;19920;-74
2022/11/26 01:49:17;;;;;;;;;;;;;;;;;;6136229;23;20229;-74
2022/11/26 01:51:43;;;;;;;;;;;;;;;;;;6135611;23;19917;-74
2022/11/26 01:54:09;;;;;;;;;;;;;;;;;;6087863;23;19944;-74
2022/11/26 01:56:35;;;;;;;;;;;;;;;;;;6135677;23;19927;-74
2022/11/26 01:59:01;;;;;;;;;;;;;;;;;;6136378;23;19921;-73
2022/11/26 02:01:27;;;;;;;;;;;;;;;;;;6136205;23;19917;-73
2022/11/26 02:03:53;;;;;;;;;;;;;;;;;;6134472;23;20336;-73
2022/11/26 02:06:19;;;;;;;;;;;;;;;;;;6133564;23;19960;-74
2022/11/26 02:08:45;;;;;;;;;;;;;;;;;;6134202;23;19965;-74
2022/11/26 02:11:11;;;;;;;;;;;;;;;;;;6134639;23;19917;-73
2022/11/26 02:13:37;;;;;;;;;;;;;;;;;;6133434;23;19992;-73
2022/11/26 02:16:03;;;;;;;;;;;;;;;;;;6134104;23;20371;-74
2022/11/26 02:18:29;;;;;;;;;;;;;;;;;;6133484;23;19932;-73
2022/11/26 02:20:55;;;;;;;;;;;;;;;;;;6084587;23;19917;-74
2022/11/26 02:23:21;;;;;;;;;;;;;;;;;;6110814;23;19916;-73
2022/11/26 02:25:47;;;;;;;;;;;;;;;;;;6133922;23;20304;-73
2022/11/26 02:28:14;;;;;;;;;;;;;;;;;;6133596;23;20027;-73
2022/11/26 02:30:40;;;;;;;;;;;;;;;;;;6134219;23;19948;-73
2022/11/26 02:33:06;;;;;;;;;;;;;;;;;;6134191;23;19952;-73
2022/11/26 02:35:32;;;;;;;;;;;;;;;;;;6133498;23;19917;-73
2022/11/26 02:37:57;;;;;;;;;;;;;;;;;;6133902;23;19916;-74
2022/11/26 02:40:23;;;;;;;;;;;;;;;;;;6134453;23;19936;-74
2022/11/26 02:42:49;;;;;;;;;;;;;;;;;;6110601;23;19928;-74
2022/11/26 02:45:15;;;;;;;;;;;;;;;;;;6132863;23;19917;-74
2022/11/26 02:47:41;;;;;;;;;;;;;;;;;;6084502;23;20300;-74
2022/11/26 02:50:07;;;;;;;;;;;;;;;;;;6111497;23;19923;-74
2022/11/26 02:52:33;;;;;;;;;;;;;;;;;;6111853;23;20183;-73
2022/11/26 02:54:59;;;;;;;;;;;;;;;;;;6111232;23;19925;-74
2022/11/26 02:57:25;;;;;;;;;;;;;;;;;;6111262;23;19917;-74
2022/11/26 02:59:51;;;;;;;;;;;;;;;;;;6110979;23;19921;-73
2022/11/26 03:02:17;;;;;;;;;;;;;;;;;;6132861;23;19949;-73
2022/11/26 03:04:43;;;;;;;;;;;;;;;;;;6133935;23;19916;-73
2022/11/26 03:07:09;;;;;;;;;;;;;;;;;;6110547;23;19921;-73
2022/11/26 03:09:34;;;;;;;;;;;;;;;;;;6110569;23;19979;-73
2022/11/26 03:12:00;;;;;;;;;;;;;;;;;;6110909;23;19916;-74
2022/11/26 03:14:26;;;;;;;;;;;;;;;;;;6111043;23;19948;-73
2022/11/26 03:16:52;;;;;;;;;;;;;;;;;;6110557;23;19928;-73
2022/11/26 03:19:18;;;;;;;;;;;;;;;;;;6133603;23;19944;-73
2022/11/26 03:21:44;;;;;;;;;;;;;;;;;;6133907;23;20369;-73
2022/11/26 03:24:10;;;;;;;;;;;;;;;;;;6133058;23;20072;-73
2022/11/26 03:26:36;;;;;;;;;;;;;;;;;;6133900;23;19920;-73
2022/11/26 03:29:02;;;;;;;;;;;;;;;;;;6110061;23;19964;-74
2022/11/26 03:31:28;;;;;;;;;;;;;;;;;;6134348;23;19971;-73
2022/11/26 03:33:54;;;;;;;;;;;;;;;;;;6112694;23;19917;-73
2022/11/26 03:36:20;;;;;;;;;;;;;;;;;;6135460;23;20245;-73
2022/11/26 03:38:46;;;;;;;;;;;;;;;;;;6135583;23;19920;-73
2022/11/26 03:41:12;;;;;;;;;;;;;;;;;;6135532;23;19976;-73
2022/11/26 03:43:37;;;;;;;;;;;;;;;;;;6086564;23;19952;-74
2022/11/26 03:46:03;;;;;;;;;;;;;;;;;;6134301;23;19920;-73
2022/11/26 03:48:29;;;;;;;;;;;;;;;;;;6112494;23;20346;-73
2022/11/26 03:50:55;;;;;;;;;;;;;;;;;;6135025;23;19917;-74
2022/11/26 03:53:21;;;;;;;;;;;;;;;;;;6110571;23;20047;-73
2022/11/26 03:55:47;;;;;;;;;;;;;;;;;;6134975;23;20248;-74
2022/11/26 03:58:13;;;;;;;;;;;;;;;;;;6135604;23;19988;-74
2022/11/26 04:00:39;;;;;;;;;;;;;;;;;;6135740;23;19944;-73
2022/11/26 04:03:05;;;;;;;;;;;;;;;;;;6112559;23;19917;-73
2022/11/26 04:05:31;;;;;;;;;;;;;;;;;;6112610;23;19988;-73
2022/11/26 04:07:57;;;;;;;;;;;;;;;;;;6111538;23;19920;-74
2022/11/26 04:10:23;;;;;;;;;;;;;;;;;;6134996;23;20336;-73
2022/11/26 04:12:49;;;;;;;;;;;;;;;;;;6112931;23;19921;-73
2022/11/26 04:15:14;;;;;;;;;;;;;;;;;;6113321;23;19956;-73
2022/11/26 04:17:40;;;;;;;;;;;;;;;;;;6134799;23;19972;-73
2022/11/26 04:20:06;;;;;;;;;;;;;;;;;;6111518;23;19921;-74
2022/11/26 04:22:32;;;;;;;;;;;;;;;;;;6135337;23;19988;-74
2022/11/26 04:24:58;;;;;;;;;;;;;;;;;;6135003;23;19944;-73
2022/11/26 04:27:24;;;;;;;;;;;;;;;;;;6135151;23;19916;-73
2022/11/26 04:29:50;;;;;;;;;;;;;;;;;;6134790;23;19917;-73
2022/11/26 04:32:16;;;;;;;;;;;;;;;;;;6135589;23;20217;-74
2022/11/26 04:34:42;;;;;;;;;;;;;;;;;;6133387;23;19971;-73
2022/11/26 04:37:08;;;;;;;;;;;;;;;;;;6112418;23;20304;-73
2022/11/26 04:39:34;;;;;;;;;;;;;;;;;;6133518;23;19924;-73
2022/11/26 04:42:00;;;;;;;;;;;;;;;;;;6133854;23;19928;-74
2022/11/26 04:44:26;;;;;;;;;;;;;;;;;;6110276;23;19916;-73
2022/11/26 04:46:52;;;;;;;;;;;;;;;;;;6133875;23;19923;-73
2022/11/26 04:49:18;;;;;;;;;;;;;;;;;;6111474;23;19943;-74
2022/11/26 04:51:44;;;;;;;;;;;;;;;;;;6134782;23;19916;-73
2022/11/26 04:54:10;;;;;;;;;;;;;;;;;;6111423;23;19917;-73
2022/11/26 04:56:35;;;;;;;;;;;;;;;;;;6112270;23;20053;-73
2022/11/26 04:59:01;;;;;;;;;;;;;;;;;;6112610;23;20403;-73
2022/11/26 05:01:27;;;;;;;;;;;;;;;;;;6134615;23;19917;-73
2022/11/26 05:03:53;;;;;;;;;;;;;;;;;;6111441;23;19916;-73
2022/11/26 05:06:19;;;;;;;;;;;;;;;;;;6111727;23;20297;-73
2022/11/26 05:08:45;;;;;;;;;;;;;;;;;;6111768;23;19916;-74
2022/11/26 05:11:11;;;;;;;;;;;;;;;;;;6135385;23;19917;-73
2022/11/26 05:13:37;;;;;;;;;;;;;;;;;;6111413;23;19920;-74
2022/11/26 05:16:03;;;;;;;;;;;;;;;;;;6134582;23;19936;-73
2022/11/26 05:18:29;;;;;;;;;;;;;;;;;;6133966;23;19932;-73
2022/11/26 05:20:55;;;;;;;;;;;;;;;;;;6111224;23;19943;-73
2022/11/26 05:23:21;;;;;;;;;;;;;;;;;;6136102;23;19921;-74
2022/11/26 05:25:47;;;;;;;;;;;;;;;;;;6135881;23;19917;-73
2022/11/26 05:28:13;;;;;;;;;;;;;;;;;;6087039;23;19917;-73
2022/11/26 05:30:39;;;;;;;;;;;;;;;;;;6136833;23;20036;-73
2022/11/26 05:33:05;;;;;;;;;;;;;;;;;;6136411;23;20359;-73
2022/11/26 05:35:30;;;;;;;;;;;;;;;;;;6113694;23;19917;-73
2022/11/26 05:37:56;;;;;;;;;;;;;;;;;;6136195;23;19948;-74
2022/11/26 05:40:22;;;;;;;;;;;;;;;;;;6119734;23;19967;-73
2022/11/26 05:42:48;;;;;;;;;;;;;;;;;;6140316;23;20008;-73
2022/11/26 05:45:15;;;;;;;;;;;;;;;;;;6140723;23;19916;-74
2022/11/26 05:47:41;;;;;;;;;;;;;;;;;;6142017;23;19922;-74
2022/11/26 05:50:07;;;;;;;;;;;;;;;;;;6141250;23;20410;-73
2022/11/26 05:52:33;;;;;;;;;;;;;;;;;;6140901;23;19916;-73
2022/11/26 05:54:59;;;;;;;;;;;;;;;;;;6143163;23;19935;-73
2022/11/26 05:57:24;;;;;;;;;;;;;;;;;;6143469;23;19923;-74
2022/11/26 05:59:50;;;;;;;;;;;;;;;;;;6141585;23;20336;-73
2022/11/26 06:02:16;;;;;;;;;;;;;;;;;;6141052;23;19924;-74
2022/11/26 06:04:42;;;;;;;;;;;;;;;;;;6141892;23;19916;-73
2022/11/26 06:07:08;;;;;;;;;;;;;;;;;;6143017;23;19972;-74
2022/11/26 06:09:34;;;;;;;;;;;;;;;;;;6140894;23;19947;-73
2022/11/26 06:12:00;;;;;;;;;;;;;;;;;;6141357;23;20320;-73
2022/11/26 06:14:26;;;;;;;;;;;;;;;;;;6141910;23;19922;-74
2022/11/26 06:16:52;;;;;;;;;;;;;;;;;;6140704;23;20392;-74
2022/11/26 06:19:18;;;;;;;;;;;;;;;;;;6115808;23;19995;-73
2022/11/26 06:21:44;;;;;;;;;;;;;;;;;;6142319;23;19916;-73
2022/11/26 06:24:10;;;;;;;;;;;;;;;;;;6143041;23;19980;-73
2022/11/26 06:26:36;;;;;;;;;;;;;;;;;;6142160;23;20354;-73
2022/11/26 06:29:02;;;;;;;;;;;;;;;;;;6142531;23;19916;-74
2022/11/26 06:31:28;;;;;;;;;;;;;;;;;;6141174;23;20375;-74
2022/11/26 06:33:54;;;;;;;;;;;;;;;;;;6141427;23;19924;-74
2022/11/26 06:36:20;;;;;;;;;;;;;;;;;;6142557;23;19970;-74
2022/11/26 06:38:45;;;;;;;;;;;;;;;;;;6141216;23;19928;-73
2022/11/26 06:41:11;;;;;;;;;;;;;;;;;;6142245;23;19920;-73
2022/11/26 06:43:37;;;;;;;;;;;;;;;;;;6141453;23;19932;-73
2022/11/26 06:46:03;;;;;;;;;;;;;;;;;;6138220;23;20028;-73
2022/11/26 06:48:29;;;;;;;;;;;;;;;;;;6138523;23;19923;-73
2022/11/26 06:50:55;;;;;;;;;;;;;;;;;;6142326;23;19923;-74
2022/11/26 06:53:21;;;;;;;;;;;;;;;;;;6140788;23;19916;-73
2022/11/26 06:55:47;;;;;;;;;;;;;;;;;;6141152;23;19916;-73
2022/11/26 06:58:13;;;;;;;;;;;;;;;;;;6139762;23;20469;-74
2022/11/26 07:00:39;;;;;;;;;;;;;;;;;;6140366;23;19925;-73
2022/11/26 07:03:05;;;;;;;;;;;;;;;;;;6141083;23;19917;-73
2022/11/26 07:05:31;;;;;;;;;;;;;;;;;;6141035;23;20323;-74
2022/11/26 07:07:57;;;;;;;;;;;;;;;;;;6140055;23;19936;-73
2022/11/26 07:10:23;;;;;;;;;;;;;;;;;;6142063;23;19924;-73
2022/11/26 07:12:49;;;;;;;;;;;;;;;;;;6141999;23;19924;-73
2022/11/26 07:15:15;;;;;;;;;;;;;;;;;;6141056;23;19916;-73
2022/11/26 07:17:41;;;;;;;;;;;;;;;;;;6142304;23;20679;-73
2022/11/26 07:20:07;;;;;;;;;;;;;;;;;;6140222;23;20351;-73
2022/11/26 07:22:33;;;;;;;;;;;;;;;;;;6139301;23;19920;-73
2022/11/26 07:24:59;;;;;;;;;;;;;;;;;;6140714;23;19921;-74
2022/11/26 07:27:25;;;;;;;;;;;;;;;;;;6141188;23;19988;-74
2022/11/26 07:29:51;;;;;;;;;;;;;;;;;;6142084;23;19944;-74
2022/11/26 07:32:17;;;;;;;;;;;;;;;;;;6142239;23;20320;-74
2022/11/26 07:34:43;;;;;;;;;;;;;;;;;;6140906;23;19923;-74
2022/11/26 07:37:09;;;;;;;;;;;;;;;;;;6140179;23;19927;-73
2022/11/26 07:39:35;;;;;;;;;;;;;;;;;;6140318;23;19921;-74
2022/11/26 07:42:00;;;;;;;;;;;;;;;;;;6141686;23;19920;-74
2022/11/26 07:44:26;;;;;;;;;;;;;;;;;;6140534;23;19924;-74
2022/11/26 07:46:52;;;;;;;;;;;;;;;;;;6141258;23;20324;-73
2022/11/26 07:49:18;;;;;;;;;;;;;;;;;;6140607;23;20010;-74
2022/11/26 07:51:44;;;;;;;;;;;;;;;;;;6140617;23;19917;-73
2022/11/26 07:54:10;;;;;;;;;;;;;;;;;;6140082;23;19924;-73
2022/11/26 07:56:36;;;;;;;;;;;;;;;;;;6111277;23;20677;-73
2022/11/26 07:59:02;;;;;;;;;;;;;;;;;;6137514;23;19943;-73
2022/11/26 08:01:28;;;;;;;;;;;;;;;;;;6135555;23;20008;-74
2022/11/26 08:03:54;;;;;;;;;;;;;;;;;;6136010;23;20353;-75
2022/11/26 08:06:20;;;;;;;;;;;;;;;;;;6137635;23;19916;-74
2022/11/26 08:08:46;;;;;;;;;;;;;;;;;;6136110;23;19916;-74
2022/11/26 08:11:12;;;;;;;;;;;;;;;;;;6136746;23;19970;-74
2022/11/26 08:13:38;;;;;;;;;;;;;;;;;;6136723;23;20584;-74
2022/11/26 08:16:04;;;;;;;;;;;;;;;;;;6137418;23;19962;-74
2022/11/26 08:18:30;;;;;;;;;;;;;;;;;;6135617;23;19920;-76
2022/11/26 08:20:56;;;;;;;;;;;;;;;;;;6138612;23;20395;-74
2022/11/26 08:23:22;;;;;;;;;;;;;;;;;;6137412;23;19917;-74
2022/11/26 08:25:48;;;;;;;;;;;;;;;;;;6136658;23;20358;-74
2022/11/26 08:28:14;;;;;;;;;;;;;;;;;;6137568;23;19916;-73
2022/11/26 08:30:40;;;;;;;;;;;;;;;;;;6135293;23;20266;-73
2022/11/26 08:33:06;;;;;;;;;;;;;;;;;;6137226;23;19921;-74
2022/11/26 08:35:32;;;;;;;;;;;;;;;;;;6138663;23;19923;-73
2022/11/26 08:37:57;;;;;;;;;;;;;;;;;;6138167;23;20550;-73
2022/11/26 08:40:23;;;;;;;;;;;;;;;;;;6138290;23;20019;-74
2022/11/26 08:42:49;;;;;;;;;;;;;;;;;;6140108;23;20382;-74
2022/11/26 08:45:15;;;;;;;;;;;;;;;;;;6141670;23;19916;-74
2022/11/26 08:47:41;;;;;;;;;;;;;;;;;;6139208;23;20004;-74
2022/11/26 08:50:07;;;;;;;;;;;;;;;;;;6139101;23;19917;-74
2022/11/26 08:52:33;;;;;;;;;;;;;;;;;;6140183;23;20628;-74
2022/11/26 08:54:59;;;;;;;;;;;;;;;;;;6139468;23;20539;-74
2022/11/26 08:57:25;;;;;;;;;;;;;;;;;;6140812;23;19916;-74
2022/11/26 08:59:53;;;;;;;;;;;;;;;;;;6138655;23;20030;-74
2022/11/26 09:02:19;;;;;;;;;;;;;;;;;;6141221;23;19927;-74
2022/11/26 09:04:45;;;;;;;;;;;;;;;;;;6089644;23;20263;-74
2022/11/26 09:07:11;;;;;;;;;;;;;;;;;;6139990;23;19923;-74
2022/11/26 09:09:37;;;;;;;;;;;;;;;;;;6140553;23;19916;-74
2022/11/26 09:12:03;;;;;;;;;;;;;;;;;;6139541;23;19971;-74
2022/11/26 09:14:30;;;;;;;;;;;;;;;;;;6139406;23;19920;-74
2022/11/26 09:16:56;;;;;;;;;;;;;;;;;;6139865;23;19916;-74
2022/11/26 09:19:22;;;;;;;;;;;;;;;;;;6140662;23;19925;-74
2022/11/26 09:21:48;;;;;;;;;;;;;;;;;;6141511;23;19925;-75
2022/11/26 09:24:15;;;;;;;;;;;;;;;;;;6140095;23;19916;-73
2022/11/26 09:26:41;;;;;;;;;;;;;;;;;;6139448;23;19920;-74
2022/11/26 09:29:07;;;;;;;;;;;;;;;;;;6138821;23;19932;-75
2022/11/26 09:31:33;;;;;;;;;;;;;;;;;;6138784;23;19917;-75
2022/11/26 09:33:59;;;;;;;;;;;;;;;;;;6137852;23;20239;-75
2022/11/26 09:36:25;;;;;;;;;;;;;;;;;;6140003;23;19916;-75
2022/11/26 09:38:51;;;;;;;;;;;;;;;;;;6138366;23;19939;-75
2022/11/26 09:41:16;;;;;;;;;;;;;;;;;;6138381;23;20679;-73
2022/11/26 09:43:42;;;;;;;;;;;;;;;;;;6138623;23;19923;-75
2022/11/26 09:46:08;;;;;;;;;;;;;;;;;;6139788;23;19987;-74
2022/11/26 09:48:34;;;;;;;;;;;;;;;;;;6140531;23;19920;-75
2022/11/26 09:51:00;;;;;;;;;;;;;;;;;;6138100;23;19920;-75
2022/11/26 09:53:26;;;;;;;;;;;;;;;;;;6138935;23;20397;-76
2022/11/26 09:55:52;;;;;;;;;;;;;;;;;;6139726;23;19967;-76
2022/11/26 09:58:18;;;;;;;;;;;;;;;;;;6139421;23;19916;-77
2022/11/26 10:00:44;;;;;;;;;;;;;;;;;;6138521;23;20336;-76
2022/11/26 10:03:10;;;;;;;;;;;;;;;;;;6088993;23;19917;-76
2022/11/26 10:05:36;;;;;;;;;;;;;;;;;;6139291;23;20665;-75
2022/11/26 10:08:02;;;;;;;;;;;;;;;;;;6090834;23;19920;-76
2022/11/26 10:10:28;;;;;;;;;;;;;;;;;;6140917;23;20299;-76
2022/11/26 10:12:54;;;;;;;;;;;;;;;;;;6140329;23;19916;-75
2022/11/26 10:15:20;;;;;;;;;;;;;;;;;;6140781;23;19917;-76
2022/11/26 10:17:46;;;;;;;;;;;;;;;;;;6140671;23;19923;-75
2022/11/26 10:20:12;;;;;;;;;;;;;;;;;;6139997;23;19920;-75
2022/11/26 10:22:38;;;;;;;;;;;;;;;;;;6139234;23;19931;-75
2022/11/26 10:25:04;;;;;;;;;;;;;;;;;;6140367;23;20597;-76
2022/11/26 10:27:30;;;;;;;;;;;;;;;;;;6140200;23;19920;-75
2022/11/26 10:29:55;;;;;;;;;;;;;;;;;;6139545;23;20380;-74
2022/11/26 10:32:21;;;;;;;;;;;;;;;;;;6139550;23;20371;-75
2022/11/26 10:34:47;;;;;;;;;;;;;;;;;;6140849;23;19923;-74
2022/11/26 10:37:13;;;;;;;;;;;;;;;;;;6141692;23;19917;-74
2022/11/26 10:39:39;;;;;;;;;;;;;;;;;;6138821;23;19952;-75
2022/11/26 10:42:05;;;;;;;;;;;;;;;;;;6136740;23;19990;-75
2022/11/26 10:44:32;;;;;;;;;;;;;;;;;;6139445;23;19916;-74
2022/11/26 10:46:58;;;;;;;;;;;;;;;;;;6140440;23;20396;-75
2022/11/26 10:49:24;;;;;;;;;;;;;;;;;;6140828;23;19935;-74
2022/11/26 10:51:50;;;;;;;;;;;;;;;;;;6141223;23;20350;-75
2022/11/26 10:54:16;;;;;;;;;;;;;;;;;;6140903;23;19931;-75
2022/11/26 10:56:42;;;;;;;;;;;;;;;;;;6140827;23;19920;-75
2022/11/26 10:59:08;;;;;;;;;;;;;;;;;;6140097;23;19927;-74
2022/11/26 11:01:34;;;;;;;;;;;;;;;;;;6140812;23;19923;-75
2022/11/26 11:04:00;;;;;;;;;;;;;;;;;;6138365;23;20344;-74
2022/11/26 11:06:26;;;;;;;;;;;;;;;;;;6139913;23;19924;-75
2022/11/26 11:08:53;;;;;;;;;;;;;;;;;;6141087;23;19935;-75
2022/11/26 11:11:19;;;;;;;;;;;;;;;;;;6139571;23;20498;-75
2022/11/26 11:13:46;;;;;;;;;;;;;;;;;;6140842;23;19923;-73
2022/11/26 11:16:12;;;;;;;;;;;;;;;;;;6140651;23;19916;-75
2022/11/26 11:18:38;;;;;;;;;;;;;;;;;;6140645;23;20347;-73
2022/11/26 11:21:04;;;;;;;;;;;;;;;;;;6141203;23;19923;-75
2022/11/26 11:23:30;;;;;;;;;;;;;;;;;;6142305;23;19924;-75
2022/11/26 11:25:56;;;;;;;;;;;;;;;;;;6089070;23;19916;-74
2022/11/26 11:28:22;;;;;;;;;;;;;;;;;;6139401;23;20328;-75
2022/11/26 11:30:48;;;;;;;;;;;;;;;;;;6139609;23;19927;-77
2022/11/26 11:33:14;;;;;;;;;;;;;;;;;;6090524;23;20359;-76
2022/11/26 11:35:40;;;;;;;;;;;;;;;;;;6136143;23;19917;-75
2022/11/26 11:38:06;;;;;;;;;;;;;;;;;;6139505;23;19920;-75
2022/11/26 11:40:32;;;;;;;;;;;;;;;;;;6088644;23;19927;-75
2022/11/26 11:42:58;;;;;;;;;;;;;;;;;;6139584;23;19971;-73
2022/11/26 11:45:24;;;;;;;;;;;;;;;;;;6138044;23;20343;-75
2022/11/26 11:47:51;;;;;;;;;;;;;;;;;;6137240;23;19916;-79
2022/11/26 11:50:17;;;;;;;;;;;;;;;;;;6087720;23;19924;-75
2022/11/26 11:52:43;;;;;;;;;;;;;;;;;;6137993;23;19917;-76
2022/11/26 11:55:09;;;;;;;;;;;;;;;;;;6135954;23;20189;-75
2022/11/26 11:57:35;;;;;;;;;;;;;;;;;;6137426;23;19916;-74
2022/11/26 12:00:14;;;;;;;;;;;;;;;;;;6137328;23;19927;-76
2022/11/26 12:02:40;;;;;;;;;;;;;;;;;;6142313;23;20223;-75
2022/11/26 12:05:06;;;;;;;;;;;;;;;;;;6140204;23;19917;-75
2022/11/26 12:07:32;;;;;;;;;;;;;;;;;;6138917;23;20356;-75
2022/11/26 12:09:58;;;;;;;;;;;;;;;;;;6139084;23;19917;-75
2022/11/26 12:12:23;;;;;;;;;;;;;;;;;;6140553;23;19916;-75
2022/11/26 12:14:49;;;;;;;;;;;;;;;;;;6091710;23;20338;-75
2022/11/26 12:17:16;;;;;;;;;;;;;;;;;;6139747;23;19916;-75
2022/11/26 12:19:42;;;;;;;;;;;;;;;;;;6140095;23;19948;-75
2022/11/26 12:22:08;;;;;;;;;;;;;;;;;;6140295;23;19916;-76
2022/11/26 12:24:34;;;;;;;;;;;;;;;;;;6140748;23;19924;-75
2022/11/26 12:27:00;;;;;;;;;;;;;;;;;;6137074;23;20339;-76
2022/11/26 12:29:26;;;;;;;;;;;;;;;;;;6142590;23;19924;-78
2022/11/26 12:31:52;;;;;;;;;;;;;;;;;;6139040;23;20342;-78
2022/11/26 12:34:18;;;;;;;;;;;;;;;;;;6137236;23;20497;-75
2022/11/26 12:36:44;;;;;;;;;;;;;;;;;;6141715;23;20008;-76
2022/11/26 12:39:17;;;;;;;;;;;;;;;;;;6114411;23;20312;-75
2022/11/26 12:41:43;;;;;;;;;;;;;;;;;;6134806;23;19921;-76
2022/11/26 12:44:09;;;;;;;;;;;;;;;;;;6112628;23;19927;-76
2022/11/26 12:46:35;;;;;;;;;;;;;;;;;;6135456;23;19923;-75
2022/11/26 12:49:01;;;;;;;;;;;;;;;;;;6134603;23;19952;-76
2022/11/26 12:51:27;;;;;;;;;;;;;;;;;;6085600;23;20371;-75
2022/11/26 12:53:53;;;;;;;;;;;;;;;;;;6112215;23;19917;-75
2022/11/26 12:56:19;;;;;;;;;;;;;;;;;;6135020;23;19921;-76
2022/11/26 12:58:45;;;;;;;;;;;;;;;;;;6134559;23;19920;-75
2022/11/26 13:01:10;;;;;;;;;;;;;;;;;;6134318;23;19916;-76
2022/11/26 13:03:36;;;;;;;;;;;;;;;;;;6135754;23;19923;-75
2022/11/26 13:06:02;;;;;;;;;;;;;;;;;;6086433;23;19924;-75
2022/11/26 13:08:28;;;;;;;;;;;;;;;;;;6134930;23;19925;-75
2022/11/26 13:10:54;;;;;;;;;;;;;;;;;;6112102;23;19959;-75
2022/11/26 13:13:20;;;;;;;;;;;;;;;;;;6135582;23;19917;-76
2022/11/26 13:15:46;;;;;;;;;;;;;;;;;;6134546;23;20400;-75
2022/11/26 13:18:12;;;;;;;;;;;;;;;;;;6112094;23;19971;-75
2022/11/26 13:20:38;;;;;;;;;;;;;;;;;;6134675;23;20490;-75
2022/11/26 13:23:04;;;;;;;;;;;;;;;;;;6134804;23;20412;-75
2022/11/26 13:25:30;;;;;;;;;;;;;;;;;;6135393;23;19948;-75
2022/11/26 13:27:56;;;;;;;;;;;;;;;;;;6112242;23;20027;-75
2022/11/26 13:30:22;;;;;;;;;;;;;;;;;;6135471;23;19916;-75
2022/11/26 13:32:48;;;;;;;;;;;;;;;;;;6135084;23;19917;-75
2022/11/26 13:35:14;;;;;;;;;;;;;;;;;;6112016;23;19971;-75
2022/11/26 13:37:40;;;;;;;;;;;;;;;;;;6134091;23;20000;-75
2022/11/26 13:40:06;;;;;;;;;;;;;;;;;;6137654;23;19920;-75
2022/11/26 13:42:32;;;;;;;;;;;;;;;;;;6139286;23;20662;-75
2022/11/26 13:44:58;;;;;;;;;;;;;;;;;;6142924;23;19917;-76
2022/11/26 13:47:24;;;;;;;;;;;;;;;;;;6140959;23;19926;-75
2022/11/26 13:49:50;;;;;;;;;;;;;;;;;;6142637;23;19916;-75
2022/11/26 13:52:16;;;;;;;;;;;;;;;;;;6141634;23;19971;-75
2022/11/26 13:54:42;;;;;;;;;;;;;;;;;;6143355;23;19923;-75
2022/11/26 13:57:08;;;;;;;;;;;;;;;;;;6142986;23;19920;-75
2022/11/26 13:59:35;;;;;;;;;;;;;;;;;;6141647;23;19916;-75
2022/11/26 14:02:01;;;;;;;;;;;;;;;;;;6141632;23;19987;-75
2022/11/26 14:04:27;;;;;;;;;;;;;;;;;;6141388;23;19916;-75
2022/11/26 14:06:53;;;;;;;;;;;;;;;;;;6142278;23;19940;-74
2022/11/26 14:09:19;;;;;;;;;;;;;;;;;;6141053;23;19921;-74
2022/11/26 14:11:45;;;;;;;;;;;;;;;;;;6140681;23;19939;-72
2022/11/26 14:14:11;;;;;;;;;;;;;;;;;;6141636;23;19924;-73
2022/11/26 14:16:37;;;;;;;;;;;;;;;;;;6143418;23;19916;-74
2022/11/26 14:19:03;;;;;;;;;;;;;;;;;;6141145;23;19921;-74
2022/11/26 14:21:29;;;;;;;;;;;;;;;;;;6140757;23;19916;-74
2022/11/26 14:23:55;;;;;;;;;;;;;;;;;;6142534;23;19917;-74
2022/11/26 14:26:21;;;;;;;;;;;;;;;;;;6141958;23;19971;-74
2022/11/26 14:28:47;;;;;;;;;;;;;;;;;;6092293;23;19924;-75
2022/11/26 14:31:13;;;;;;;;;;;;;;;;;;6141951;23;19942;-75
2022/11/26 14:33:43;;;;;;;;;;;;;;;;;;6140937;23;19921;-75
2022/11/26 14:36:09;;;;;;;;;;;;;;;;;;6141057;23;19968;-75
2022/11/26 14:38:35;;;;;;;;;;;;;;;;;;6140582;23;20200;-75
2022/11/26 14:41:01;;;;;;;;;;;;;;;;;;6134300;23;20237;-75
2022/11/26 14:43:27;;;;;;;;;;;;;;;;;;6136412;23;19921;-76
2022/11/26 14:45:53;;;;;;;;;;;;;;;;;;6135827;23;19917;-75
2022/11/26 14:48:19;;;;;;;;;;;;;;;;;;6135539;23;19921;-74
2022/11/26 14:50:45;;;;;;;;;;;;;;;;;;6135460;23;20303;-73
2022/11/26 14:53:11;;;;;;;;;;;;;;;;;;6113104;23;20368;-74
2022/11/26 14:55:37;;;;;;;;;;;;;;;;;;6111062;23;20503;-73
2022/11/26 14:58:03;;;;;;;;;;;;;;;;;;6136385;23;19917;-74
2022/11/26 15:00:29;;;;;;;;;;;;;;;;;;6111780;23;19928;-73
2022/11/26 15:02:55;;;;;;;;;;;;;;;;;;6135286;23;19923;-74
2022/11/26 15:05:21;;;;;;;;;;;;;;;;;;6112239;23;19917;-75
2022/11/26 15:07:46;;;;;;;;;;;;;;;;;;6135323;23;19923;-75
2022/11/26 15:10:12;;;;;;;;;;;;;;;;;;6134136;23;19917;-77
2022/11/26 15:12:38;;;;;;;;;;;;;;;;;;6136237;23;19924;-76
2022/11/26 15:15:04;;;;;;;;;;;;;;;;;;6112519;23;19917;-76
2022/11/26 15:17:30;;;;;;;;;;;;;;;;;;6135769;23;19925;-80
2022/11/26 15:19:56;;;;;;;;;;;;;;;;;;6135171;23;19920;-87
2022/11/26 15:22:22;;;;;;;;;;;;;;;;;;6134897;23;19964;-78
2022/11/26 15:24:48;;;;;;;;;;;;;;;;;;6135368;23;20016;-80
2022/11/26 15:27:14;;;;;;;;;;;;;;;;;;6137855;23;19960;-81
2022/11/26 15:29:40;;;;;;;;;;;;;;;;;;6134806;23;20375;-76
2022/11/26 15:32:06;;;;;;;;;;;;;;;;;;6110649;23;19928;-78
2022/11/26 15:34:32;;;;;;;;;;;;;;;;;;6132134;23;19920;-76
2022/11/26 15:36:58;;;;;;;;;;;;;;;;;;6133137;23;20011;-75
2022/11/26 15:39:24;;;;;;;;;;;;;;;;;;6132935;23;19991;-75
2022/11/26 15:41:50;;;;;;;;;;;;;;;;;;6140594;23;20017;-75
2022/11/26 15:44:16;;;;;;;;;;;;;;;;;;6139056;23;20748;-75
2022/11/26 15:46:42;;;;;;;;;;;;;;;;;;6138640;23;19916;-75
2022/11/26 15:49:08;;;;;;;;;;;;;;;;;;6139676;23;19931;-76
2022/11/26 15:51:35;;;;;;;;;;;;;;;;;;6139260;23;20295;-75
2022/11/26 15:54:01;;;;;;;;;;;;;;;;;;6139474;23;19916;-75
2022/11/26 15:56:27;;;;;;;;;;;;;;;;;;6140167;23;20261;-75
2022/11/26 15:58:53;;;;;;;;;;;;;;;;;;6138687;23;19996;-74
2022/11/26 16:01:19;;;;;;;;;;;;;;;;;;6137417;23;19924;-74
2022/11/26 16:03:45;;;;;;;;;;;;;;;;;;6139381;23;19925;-77
2022/11/26 16:06:11;;;;;;;;;;;;;;;;;;6138253;23;19917;-75
2022/11/26 16:08:41;;;;;;;;;;;;;;;;;;6137743;23;19917;-75
2022/11/26 16:11:07;;;;;;;;;;;;;;;;;;6136549;23;19932;-79
2022/11/26 16:13:33;;;;;;;;;;;;;;;;;;6138492;23;19916;-77
2022/11/26 16:15:59;;;;;;;;;;;;;;;;;;6137830;23;19966;-75
2022/11/26 16:18:25;;;;;;;;;;;;;;;;;;6139787;23;19948;-75
2022/11/26 16:20:51;;;;;;;;;;;;;;;;;;6137357;23;20375;-75
2022/11/26 16:23:17;;;;;;;;;;;;;;;;;;6138471;23;20353;-76
2022/11/26 16:25:43;;;;;;;;;;;;;;;;;;6136563;23;19916;-77
2022/11/26 16:28:09;;;;;;;;;;;;;;;;;;6138352;23;19921;-77
2022/11/26 16:30:35;;;;;;;;;;;;;;;;;;6136733;23;19979;-74
2022/11/26 16:33:01;;;;;;;;;;;;;;;;;;6138670;23;19916;-75
2022/11/26 16:35:27;;;;;;;;;;;;;;;;;;6139138;23;19920;-75
2022/11/26 16:37:53;;;;;;;;;;;;;;;;;;6136027;23;19917;-77